Aviation Digital Data Service (ADDS)

Output produced by METARs form (1806 UTC 31 March 2015)
found at http://aviationweather.gov/adds/metars/
 
KPNE 311723Z 3118/0118 20003KT P6SM OVC050 
     TEMPO 3118/3120 3SM -RA OVC025 
     FM312000 15011KT 4SM -RA BR OVC025 
     FM312200 04008KT 3SM -RA BR OVC010 
     FM010100 01010G17KT 5SM -RA BR OVC025 
     FM010300 35011G18KT P6SM OVC035 
     FM010700 34011KT P6SM FEW040